createdAt,value
2023-03-07T00:00:45.329Z,2.90
2023-03-07T00:05:47.138Z,2.90
2023-03-07T00:10:48.918Z,2.80
2023-03-07T00:15:52.035Z,2.90
2023-03-07T00:20:57.470Z,2.80
2023-03-07T00:26:00.410Z,2.70
2023-03-07T00:31:06.082Z,2.70
2023-03-07T00:36:10.834Z,2.60
2023-03-07T00:41:14.528Z,2.60
2023-03-07T00:46:19.798Z,2.60
2023-03-07T00:51:23.255Z,2.50
2023-03-07T00:56:25.612Z,2.40
2023-03-07T01:01:28.805Z,2.40
2023-03-07T01:06:32.884Z,2.30
2023-03-07T01:11:36.085Z,2.30
2023-03-07T01:16:39.216Z,2.20
2023-03-07T01:21:42.583Z,2.10
2023-03-07T01:26:44.351Z,2.10
2023-03-07T01:31:47.468Z,2.00
2023-03-07T01:36:49.279Z,2.00
2023-03-07T01:41:51.162Z,1.90
2023-03-07T01:46:55.350Z,2.00
2023-03-07T01:52:02.473Z,2.00
2023-03-07T01:57:04.832Z,2.00
2023-03-07T02:02:10.807Z,2.00
2023-03-07T02:07:13.564Z,2.10
2023-03-07T02:12:15.720Z,2.10
2023-03-07T02:17:19.380Z,2.20
2023-03-07T02:22:21.195Z,2.30
2023-03-07T02:27:25.431Z,2.20
2023-03-07T02:32:27.389Z,2.30
2023-03-07T02:37:33.576Z,2.30
2023-03-07T02:42:41.218Z,2.30
2023-03-07T02:47:43.416Z,2.30
2023-03-07T02:52:45.663Z,2.40
2023-03-07T02:57:48.814Z,2.40
2023-03-07T03:02:50.562Z,2.40
2023-03-07T03:07:52.569Z,2.40
2023-03-07T03:12:55.690Z,2.60
2023-03-07T03:17:57.464Z,2.60
2023-03-07T03:22:59.185Z,2.60
2023-03-07T03:28:02.303Z,2.70
2023-03-07T03:33:04.208Z,2.60
2023-03-07T03:38:05.987Z,2.80
2023-03-07T03:43:09.089Z,2.70
2023-03-07T03:48:10.948Z,2.80
2023-03-07T03:53:12.670Z,2.80
2023-03-07T03:58:15.748Z,2.80
2023-03-07T04:03:17.485Z,2.90
2023-03-07T04:08:19.335Z,2.90
2023-03-07T04:13:22.456Z,2.90
2023-03-07T04:18:24.579Z,2.90
2023-03-07T04:23:27.975Z,3.00
2023-03-07T04:34:32.516Z,2.90
2023-03-07T04:39:34.509Z,3.00
2023-03-07T04:44:36.326Z,3.00
2023-03-07T04:49:39.493Z,2.90
2023-03-07T04:54:41.224Z,2.90
2023-03-07T04:59:42.984Z,3.00
2023-03-07T05:04:46.263Z,3.00
2023-03-07T05:09:47.961Z,3.00
2023-03-07T05:14:49.703Z,3.10
2023-03-07T05:19:52.880Z,3.10
2023-03-07T05:24:54.601Z,3.10
2023-03-07T05:29:56.376Z,3.10
2023-03-07T05:34:59.538Z,3.00
2023-03-07T05:40:01.230Z,3.10
2023-03-07T05:45:04.688Z,3.10
2023-03-07T05:50:09.550Z,3.10
2023-03-07T05:55:11.154Z,3.10
2023-03-07T06:00:14.122Z,3.10
2023-03-07T06:05:17.391Z,3.10
2023-03-07T06:10:19.230Z,3.10
2023-03-07T06:15:23.685Z,3.20
2023-03-07T06:20:27.615Z,3.20
2023-03-07T06:25:29.452Z,3.10
2023-03-07T06:30:31.217Z,3.10
2023-03-07T06:35:34.720Z,3.00
2023-03-07T06:40:36.832Z,3.00
2023-03-07T06:45:38.655Z,3.00
2023-03-07T06:50:41.815Z,2.90
2023-03-07T06:55:43.655Z,3.00
2023-03-07T07:01:00.581Z,3.00
2023-03-07T07:06:03.913Z,3.10
2023-03-07T07:11:05.975Z,3.10
2023-03-07T07:16:09.397Z,3.10
2023-03-07T07:21:12.657Z,3.20
2023-03-07T07:26:14.586Z,3.30
2023-03-07T07:31:16.397Z,3.40
2023-03-07T07:36:21.132Z,3.60
2023-03-07T07:41:23.728Z,3.80
2023-03-07T07:46:25.869Z,3.80
2023-03-07T07:51:28.951Z,4.00
2023-03-07T07:56:30.638Z,4.10
2023-03-07T08:01:32.574Z,4.30
2023-03-07T08:06:35.819Z,4.40
2023-03-07T08:11:37.549Z,4.60
2023-03-07T08:16:39.246Z,4.70
2023-03-07T08:21:42.373Z,4.80
2023-03-07T08:26:46.977Z,5.00
2023-03-07T08:31:48.738Z,5.10
2023-03-07T08:36:51.841Z,5.30
2023-03-07T08:41:53.522Z,5.50
2023-03-07T08:46:55.265Z,5.50
2023-03-07T08:51:58.314Z,5.50
2023-03-07T08:57:00.165Z,5.70
2023-03-07T09:02:02.003Z,5.80
2023-03-07T09:07:07.857Z,6.10
2023-03-07T09:12:09.890Z,6.20
2023-03-07T09:17:11.717Z,6.70
2023-03-07T09:22:14.924Z,6.80
2023-03-07T09:27:16.674Z,6.80
2023-03-07T09:32:18.436Z,6.90
2023-03-07T09:37:21.536Z,7.10
2023-03-07T09:42:27.963Z,7.00
2023-03-07T09:48:03.363Z,6.80
2023-03-07T09:53:16.783Z,7.00
2023-03-07T09:58:22.129Z,7.10
2023-03-07T10:03:32.470Z,7.50
2023-03-07T10:08:35.664Z,7.40
2023-03-07T10:13:51.598Z,7.20
2023-03-07T10:19:02.917Z,7.00
2023-03-07T10:24:30.856Z,6.80
2023-03-07T10:29:38.727Z,6.70
2023-03-07T10:34:41.115Z,6.70
2023-03-07T10:57:26.217Z,8.00
2023-03-07T11:02:34.819Z,8.80
2023-03-07T11:07:43.263Z,8.80
2023-03-07T11:12:46.591Z,8.30
2023-03-07T11:17:58.943Z,8.00
2023-03-07T11:23:23.465Z,8.00
2023-03-07T11:28:29.724Z,8.10
2023-03-07T11:33:58.718Z,8.00
2023-03-07T11:39:11.500Z,7.80
2023-03-07T11:44:30.058Z,8.10
2023-03-07T11:50:07.326Z,8.50
2023-03-07T11:55:24.929Z,8.70
2023-03-07T12:00:33.667Z,8.40
2023-03-07T12:06:03.902Z,8.00
2023-03-07T12:11:34.567Z,8.00
2023-03-07T12:16:47.339Z,7.80
2023-03-07T12:22:16.437Z,7.80
2023-03-07T12:27:26.227Z,7.80
2023-03-07T12:32:34.021Z,7.70
2023-03-07T12:37:41.063Z,7.90
2023-03-07T12:42:49.832Z,8.10
2023-03-07T12:48:02.072Z,8.10
2023-03-07T12:53:09.744Z,8.20
2023-03-07T12:58:19.650Z,8.10
2023-03-07T13:03:34.287Z,7.90
2023-03-07T13:08:36.110Z,8.00
2023-03-07T13:13:56.235Z,7.90
2023-03-07T13:19:43.507Z,7.90
2023-03-07T13:24:46.332Z,7.80
2023-03-07T13:30:18.005Z,7.60
2023-03-07T13:35:53.273Z,7.60
2023-03-07T13:40:55.860Z,7.80
2023-03-07T13:45:58.177Z,7.90
2023-03-07T13:51:07.829Z,7.80
2023-03-07T13:56:21.322Z,7.60
2023-03-07T14:01:36.683Z,7.60
2023-03-07T14:06:42.852Z,7.50
2023-03-07T14:11:51.702Z,7.40
2023-03-07T14:17:06.118Z,7.40
2023-03-07T14:22:31.610Z,7.50
2023-03-07T14:27:47.373Z,7.70
2023-03-07T14:32:49.313Z,7.80
2023-03-07T14:37:52.389Z,7.80
2023-03-07T14:43:03.820Z,7.80
2023-03-07T14:48:29.102Z,7.70
2023-03-07T14:53:44.693Z,7.60
2023-03-07T14:58:49.285Z,7.50
2023-03-07T15:03:53.570Z,7.50
2023-03-07T15:20:03.217Z,7.50
2023-03-07T15:25:17.138Z,7.30
2023-03-07T15:30:24.660Z,7.30
2023-03-07T15:35:26.505Z,7.10
2023-03-07T15:40:32.259Z,7.10
2023-03-07T15:45:35.711Z,7.00
2023-03-07T15:50:38.009Z,6.90
2023-03-07T15:55:42.936Z,6.90
2023-03-07T16:00:44.798Z,6.90
2023-03-07T16:17:30.812Z,6.70
2023-03-07T16:23:15.874Z,6.60
2023-03-07T16:39:56.102Z,6.50
2023-03-07T16:45:33.651Z,6.30
2023-03-07T16:50:46.538Z,6.20
2023-03-07T16:55:48.789Z,6.20
2023-03-07T17:01:27.014Z,6.10
2023-03-07T17:07:11.558Z,6.10
2023-03-07T17:12:24.871Z,6.10
2023-03-07T17:17:30.285Z,6.00
2023-03-07T17:22:32.159Z,6.00
2023-03-07T17:27:46.070Z,6.00
2023-03-07T17:32:48.484Z,6.00
2023-03-07T17:37:51.432Z,6.00
2023-03-07T17:42:55.110Z,5.90
2023-03-07T17:47:57.098Z,5.90
2023-03-07T17:52:58.860Z,5.90
2023-03-07T17:58:02.038Z,5.90
2023-03-07T18:03:04.495Z,5.90
2023-03-07T18:08:06.640Z,6.00
2023-03-07T18:13:09.876Z,6.00
2023-03-07T18:18:11.625Z,5.90
2023-03-07T18:23:13.348Z,6.00
2023-03-07T18:28:16.466Z,6.00
2023-03-07T18:33:18.152Z,6.00
2023-03-07T18:38:20.226Z,5.90
2023-03-07T18:43:23.432Z,5.90
2023-03-07T18:48:25.642Z,6.00
2023-03-07T18:53:29.567Z,6.10
2023-03-07T18:58:45.602Z,6.10
2023-03-07T19:03:49.436Z,6.20
2023-03-07T19:25:36.243Z,6.20
2023-03-07T19:30:38.090Z,6.20
2023-03-07T19:35:39.849Z,6.20
2023-03-07T19:40:47.547Z,6.20
2023-03-07T19:45:49.389Z,6.20
2023-03-07T19:50:51.771Z,6.10
2023-03-07T19:55:55.139Z,6.20
2023-03-07T20:00:59.261Z,6.20
2023-03-07T20:06:02.227Z,6.10
2023-03-07T20:11:10.897Z,6.10
2023-03-07T20:16:13.309Z,6.20
2023-03-07T20:21:15.436Z,6.10
2023-03-07T20:26:20.489Z,6.00
2023-03-07T20:31:22.375Z,6.00
2023-03-07T20:36:25.632Z,6.00
2023-03-07T20:41:30.530Z,5.90
2023-03-07T20:46:33.354Z,6.00
2023-03-07T20:51:36.320Z,6.10
2023-03-07T20:56:40.235Z,6.10
2023-03-07T21:01:42.359Z,6.10
2023-03-07T21:06:45.505Z,6.10
2023-03-07T21:11:50.121Z,6.00
2023-03-07T21:16:51.992Z,6.00
2023-03-07T21:21:53.733Z,6.10
2023-03-07T21:26:56.843Z,6.10
2023-03-07T21:31:58.664Z,6.10
2023-03-07T21:37:00.430Z,6.00
2023-03-07T21:42:03.709Z,5.50
2023-03-07T21:47:05.416Z,4.70
2023-03-07T21:52:07.216Z,4.20
2023-03-07T21:57:10.343Z,3.90
2023-03-07T22:02:12.368Z,3.70
2023-03-07T22:07:14.275Z,3.50
2023-03-07T22:12:49.565Z,3.50
2023-03-07T22:18:07.233Z,3.50
2023-03-07T22:23:09.626Z,3.30
2023-03-07T22:28:11.457Z,3.20
2023-03-07T22:33:14.844Z,3.20
2023-03-07T22:38:16.917Z,3.00
2023-03-07T22:43:24.400Z,2.90
2023-03-07T22:48:28.335Z,2.80
2023-03-07T22:53:31.532Z,2.60
2023-03-07T22:58:33.331Z,2.50
2023-03-07T23:03:36.537Z,2.40
2023-03-07T23:08:38.356Z,2.50
2023-03-07T23:13:40.256Z,2.40
2023-03-07T23:18:45.011Z,2.40
2023-03-07T23:23:46.910Z,2.40
2023-03-07T23:28:49.364Z,2.50
2023-03-07T23:33:55.382Z,2.50
2023-03-07T23:38:58.168Z,2.50
2023-03-07T23:44:00.852Z,2.30
2023-03-07T23:49:04.068Z,2.30
2023-03-07T23:54:05.974Z,2.20
2023-03-07T23:59:07.800Z,2.20
